Naples, Texas
Current Conditions -  °F | °C
As of 10:35 AM on Monday 24 Nov 2014 (Local Time) from KOSA Reporting Station
Clear Clear  
Wind Chill: 55°   Ceiling: Unl
Heat Index: 55°   Visibility: 10mi
Dew Point: 28°   Wind: 8mph
Humidity: 36%   Direction: 300°WNW
Pressure: 30.07"   Gusts: NA
Location:  33.2°N, 94.68°W
Report Text: KOSA 241635Z AUTO 30007KT 10SM CLR 13/M02 A3007 RMK AO1 T01271021
Loading
Personal Weather Stations






























Interactive Weather Map New forecast layout! Learn more

10-Day Weather Forecast

Advertisements
Track Severe Weather on mobile